Warning: Javascript must be enabled to use all the features on this page!


Page Loading - Please Wait...

Click to hideNews Bulletins

Peak Streamflow for the Nation

USGS 09304800 WHITE RIVER BELOW MEEKER, CO

Rio Blanco County, Colorado
Hydrologic Unit Code 14050005
Latitude  40°01'21.3", Longitude 108°07'11.8" NAD83
Drainage area 1,042  square miles
Gage datum 5,900 feet above NGVD29
Output formats
Table
Graph
Tab-separated file
peakfq (watstore) format
Reselect output format
Water
Year
Date Gage
Height
(feet)
Stream-
flow
(cfs)
1962 1962-05-13 3.882 3,580
1963 1963-05-19 3.08 2,180
1964 1964-05-23 3.70 3,110
1965 1965-06-15 4.09 4,010
1966 1966-05-08 2.782 1,790
1967 1967-05-26 3.57 2,920
1968 1968-06-06 3.90 3,700
1969 1969-05-28 3.10 2,590
1970 1970-05-21 3.99 3,990
1971 1971-06-23 3.42 3,000
1972 1972-06-08 3.65 3,390
1973 1973-05-21 3.78 3,660
1974 1974-05-13 3.68 3,540
1975 1975-06-08 4.02 4,370
1976 1976-05-20 3.052 2,260
1977 1977-06-01 2.062 918
1978 1978-06-17 4.46 4,750
1979 1979-05-29 4.17 4,150
1980 1980-05-24 3.612 3,090
1981 1981-06-09 2.98 2,080
1982 1982-05-28 3.34 2,680
1983 1983-06-26 4.97 6,590
1984 1984-05-25 5.06 6,320
1985 1985-06-10   4,8001,2
1986 1986-06-07 4.12 4,410
1987 1987-05-17 3.07 2,370
1988 1988-05-18 3.46 2,910
1989 1989-05-12 2.51 1,740
1990 1990-06-12 3.11 2,340
1991 1991-06-15 3.32 2,760
1992 1992-05-27 2.732 2,060
1993 1993-05-22 4.11 4,170
1994 1994-06-01 2.50 1,500
1995 1995-06-17 4.44 4,780
1996 1996-05-17 3.85 3,170
1997 1997-06-03 4.00 4,140
1998 1998-05-22 3.78 3,590
1999 1999-05-31 3.49 3,200
2000 2000-05-31 3.58 3,520
2001 2001-05-18 3.06 2,510
2002 2002-05-08 1.596 836
2003 2003-06-02 6.08 4,560
2004 2004-05-08 4.48 1,810
2005 2005-05-23 5.50 3,390
2006 2006-05-23 5.61 3,180
2007 2007-05-16 4.72 1,860
2008 2008-05-22 5.89 3,700
2009 2009-05-25 5.90 3,720
2010 2010-06-08 5.92 3,760
2011 2011-06-07   5,6002
2012 2012-04-27 4.02 1,160
2013 2013-05-27 6.926 2,020
2014 2014-06-01 8.33 3,350
2015 2015-06-03 7.78 2,720
2016 2016-05-22 7.50 2,3409
2017 2017-06-11 7.68 2,5409
2018 2018-05-12 6.94 1,820
2019 2019-06-22 9.98 5,860
2020 2020-06-07 7.33 2,220
2021 2021-06-05 6.22 1,220
?
  Peak Gage-Height Qualification Codes.
?
  Peak Streamflow Qualification Codes.